Time;durP1;ratioP1;P1;durP2;ratioP2;P2;SDS_P1;SDS_P2;PMS_P1;PMS_P2;Temp;Humidity;BMP_temperature;BMP_pressure;BME280_temperature;BME280_humidity;BME280_pressure;Samples;Min_cycle;Max_cycle;Signal;HPM_P1;HPM_P2
2023/12/31 00:01:41;;;;;;;;;21.25;19.00;;;;;12.00;100.00;98745.75;6241551;28;96506;-57
2023/12/31 00:04:44;;;;;;;;;22.00;20.00;;;;;12.00;100.00;98745.75;6241567;28;96363;-55
2023/12/31 00:07:49;;;;;;;;;20.50;20.00;;;;;12.02;100.00;98751.78;6243063;28;96499;-55
2023/12/31 00:10:52;;;;;;;;;23.25;21.50;;;;;12.03;100.00;98742.59;6235502;28;96345;-55
2023/12/31 00:13:55;;;;;;;;;21.00;20.00;;;;;12.03;100.00;98740.72;6238887;28;97282;-55
2023/12/31 00:16:58;;;;;;;;;22.60;20.00;;;;;12.04;100.00;98738.84;6241961;28;96274;-56
2023/12/31 00:20:03;;;;;;;;;20.40;19.00;;;;;12.06;100.00;98747.53;6242660;28;96544;-56
2023/12/31 00:23:12;;;;;;;;;20.50;20.50;;;;;12.09;100.00;98741.66;6213380;28;96305;-58
2023/12/31 00:26:15;;;;;;;;;24.00;21.00;;;;;12.10;100.00;98738.72;6213379;28;96332;-58
2023/12/31 00:29:19;;;;;;;;;22.75;21.00;;;;;12.08;100.00;98745.41;6201627;28;96365;-59
2023/12/31 00:32:22;;;;;;;;;19.00;18.00;;;;;12.06;100.00;98752.94;6213611;28;96295;-58
2023/12/31 00:35:25;;;;;;;;;24.00;21.60;;;;;12.01;100.00;98740.13;6212987;28;96455;-58
2023/12/31 00:38:30;;;;;;;;;21.60;20.60;;;;;11.98;100.00;98740.59;6213063;28;96278;-58
2023/12/31 00:41:33;;;;;;;;;24.00;22.00;;;;;11.95;100.00;98746.47;6212579;28;97665;-58
2023/12/31 00:44:36;;;;;;;;;21.40;20.00;;;;;11.95;100.00;98751.03;6212324;28;96563;-58
2023/12/31 00:47:39;;;;;;;;;22.00;20.00;;;;;11.89;100.00;98757.38;6195314;28;96864;-58
2023/12/31 00:50:42;;;;;;;;;22.20;19.60;;;;;11.87;100.00;98759.50;6212545;28;96288;-58
2023/12/31 00:53:46;;;;;;;;;23.00;21.60;;;;;11.85;100.00;98750.78;6212823;28;97111;-58
2023/12/31 00:56:50;;;;;;;;;24.00;22.00;;;;;11.84;100.00;98754.56;6194481;28;96457;-59
2023/12/31 00:59:53;;;;;;;;;22.20;21.80;;;;;11.84;100.00;98751.84;6186300;28;96432;-58
2023/12/31 01:02:56;;;;;;;;;21.00;19.20;;;;;11.82;100.00;98751.28;6207658;28;96271;-58
2023/12/31 01:06:05;;;;;;;;;21.00;20.40;;;;;11.82;100.00;98757.50;6202914;28;96610;-59
2023/12/31 01:09:10;;;;;;;;;22.00;21.40;;;;;11.83;100.00;98748.31;6188014;28;96481;-59
2023/12/31 01:12:14;;;;;;;;;19.20;18.60;;;;;11.87;100.00;98754.09;6187922;28;96281;-59
2023/12/31 01:15:17;;;;;;;;;25.25;23.25;;;;;11.88;100.00;98756.56;6185615;28;97257;-58
2023/12/31 01:18:20;;;;;;;;;22.25;20.00;;;;;11.91;100.00;98763.38;6175767;28;96482;-58
2023/12/31 01:21:23;;;;;;;;;23.00;20.00;;;;;11.90;100.00;98767.97;6173761;28;98725;-58
2023/12/31 01:24:28;;;;;;;;;21.00;19.00;;;;;11.93;100.00;98769.34;6169289;28;96364;-58
2023/12/31 01:27:31;;;;;;;;;24.60;22.00;;;;;11.93;100.00;98764.78;6187227;28;96297;-58
2023/12/31 01:30:34;;;;;;;;;23.00;22.00;;;;;11.94;100.00;98765.59;6170896;28;96640;-58
2023/12/31 01:33:37;;;;;;;;;22.00;20.00;;;;;11.95;100.00;98762.69;6187285;28;96338;-58
2023/12/31 01:36:40;;;;;;;;;22.25;21.25;;;;;11.95;100.00;98759.97;6187378;28;96313;-59
2023/12/31 01:39:45;;;;;;;;;20.60;18.80;;;;;11.97;100.00;98757.84;6186938;28;96329;-58
2023/12/31 01:42:48;;;;;;;;;20.60;19.00;;;;;11.99;100.00;98754.91;6187320;28;96433;-58
2023/12/31 01:45:51;;;;;;;;;21.00;19.80;;;;;11.97;100.00;98757.84;6187342;28;96415;-58
2023/12/31 01:48:55;;;;;;;;;22.00;21.00;;;;;11.96;100.00;98761.63;6168931;28;96308;-58
2023/12/31 01:51:58;;;;;;;;;20.00;18.00;;;;;11.95;100.00;98757.28;6186517;28;97140;-58
2023/12/31 01:55:05;;;;;;;;;18.75;17.75;;;;;11.96;100.00;98752.69;6186011;28;96446;-59
2023/12/31 01:58:09;;;;;;;;;19.00;18.00;;;;;11.94;100.00;98750.22;6186234;28;96406;-59
2023/12/31 02:01:12;;;;;;;;;22.80;19.80;;;;;11.91;100.00;98753.41;6169235;28;96470;-59
2023/12/31 02:04:15;;;;;;;;;21.00;18.20;;;;;11.84;100.00;98739.16;6197020;28;96821;-58
2023/12/31 02:07:19;;;;;;;;;21.00;19.60;;;;;11.76;100.00;98757.59;6210991;28;96374;-58
2023/12/31 02:10:23;;;;;;;;;20.80;20.00;;;;;11.65;100.00;98753.78;6211743;28;96295;-59
2023/12/31 02:13:28;;;;;;;;;21.00;20.20;;;;;11.54;100.00;98757.28;6227277;28;96463;-58
2023/12/31 02:16:32;;;;;;;;;21.00;19.25;;;;;11.42;100.00;98761.84;6210792;28;97670;-59
2023/12/31 02:19:35;;;;;;;;;19.00;17.33;;;;;11.31;100.00;98758.03;6201149;28;96292;-58
2023/12/31 02:22:38;;;;;;;;;22.00;21.60;;;;;11.24;100.00;98752.72;6211556;28;96343;-58
2023/12/31 02:25:48;;;;;;;;;19.20;18.00;;;;;11.17;100.00;98746.59;6211437;28;96328;-58
2023/12/31 02:28:52;;;;;;;;;14.00;13.60;;;;;11.09;100.00;98740.72;6211681;28;96573;-58
2023/12/31 02:31:55;;;;;;;;;17.00;16.00;;;;;11.04;100.00;98745.97;6211398;28;96334;-59
2023/12/31 02:34:59;;;;;;;;;20.60;19.00;;;;;10.97;100.00;98745.22;6193524;28;96363;-59
2023/12/31 02:38:02;;;;;;;;;17.00;16.00;;;;;10.86;100.00;98741.41;6209761;28;96503;-59
2023/12/31 02:41:05;;;;;;;;;18.20;17.20;;;;;10.78;100.00;98742.56;6217061;28;96260;-58
2023/12/31 02:44:09;;;;;;;;;22.00;20.00;;;;;10.69;100.00;98740.41;6215273;28;96175;-58
2023/12/31 02:47:12;;;;;;;;;18.20;16.80;;;;;10.60;100.00;98737.19;6214797;28;96416;-59
2023/12/31 02:50:15;;;;;;;;;19.00;18.00;;;;;10.52;100.00;98739.34;6215366;28;96746;-58
2023/12/31 02:53:19;;;;;;;;;18.80;17.80;;;;;10.42;100.00;98737.16;6215295;28;96269;-58
2023/12/31 02:56:22;;;;;;;;;16.60;16.60;;;;;10.33;100.00;98738.50;6215151;28;97039;-59
2023/12/31 02:59:26;;;;;;;;;19.00;17.40;;;;;10.25;100.00;98745.03;6215419;28;96774;-58
2023/12/31 03:02:29;;;;;;;;;17.00;15.00;;;;;10.19;100.00;98745.91;6197570;28;96306;-59
2023/12/31 03:05:33;;;;;;;;;19.00;18.00;;;;;10.13;100.00;98745.94;6214662;28;96259;-58
2023/12/31 03:08:36;;;;;;;;;15.25;14.75;;;;;10.08;100.00;98749.31;6214867;28;96319;-58
2023/12/31 03:11:39;;;;;;;;;17.00;16.00;;;;;10.05;100.00;98749.75;6214855;28;96299;-58
2023/12/31 03:14:43;;;;;;;;;16.25;14.00;;;;;10.04;100.00;98758.06;6214890;28;96413;-58
2023/12/31 03:17:46;;;;;;;;;15.20;13.80;;;;;9.99;100.00;98748.78;6214767;28;96230;-58
2023/12/31 03:20:49;;;;;;;;;18.00;15.00;;;;;9.96;100.00;98753.78;6205643;28;96965;-58
2023/12/31 03:23:52;;;;;;;;;16.75;16.00;;;;;9.95;100.00;98757.50;6179945;28;96669;-58
2023/12/31 03:26:56;;;;;;;;;17.00;16.00;;;;;9.91;100.00;98759.00;6214921;28;96753;-58
2023/12/31 03:30:00;;;;;;;;;16.00;15.00;;;;;9.88;100.00;98751.34;6196951;28;96853;-58
2023/12/31 03:33:04;;;;;;;;;14.00;14.00;;;;;9.87;100.00;98758.59;6213246;28;97443;-59
2023/12/31 03:36:08;;;;;;;;;15.00;15.00;;;;;9.86;100.00;98756.16;6214524;28;96361;-58
2023/12/31 03:39:11;;;;;;;;;14.50;13.50;;;;;9.84;100.00;98745.59;6214579;28;96488;-58
2023/12/31 03:42:15;;;;;;;;;15.00;14.00;;;;;9.81;100.00;98748.72;6213332;28;96359;-58
2023/12/31 03:45:19;;;;;;;;;15.60;14.00;;;;;9.79;100.00;98744.59;6213427;28;96536;-58
2023/12/31 03:48:22;;;;;;;;;17.00;14.00;;;;;9.76;100.00;98742.34;6214020;28;97142;-58
2023/12/31 03:51:25;;;;;;;;;13.75;13.75;;;;;9.72;100.00;98739.28;6214269;28;96339;-59
2023/12/31 03:54:28;;;;;;;;;15.00;14.00;;;;;9.71;100.00;98739.50;6214185;28;96336;-58
2023/12/31 03:57:31;;;;;;;;;16.00;14.00;;;;;9.70;100.00;98737.84;6226400;28;96693;-58
2023/12/31 04:00:36;;;;;;;;;13.00;12.00;;;;;9.70;100.00;98741.34;6214028;28;96352;-58
2023/12/31 04:03:39;;;;;;;;;13.80;12.60;;;;;9.69;100.00;98739.72;6219214;28;96217;-58
2023/12/31 04:06:43;;;;;;;;;13.00;13.00;;;;;9.66;100.00;98734.78;6238838;28;96286;-58
2023/12/31 04:09:47;;;;;;;;;12.00;11.20;;;;;9.66;100.00;98731.25;6235786;28;96326;-58
2023/12/31 04:12:50;;;;;;;;;12.00;11.50;;;;;9.63;100.00;98734.41;6217442;28;96270;-58
2023/12/31 04:15:54;;;;;;;;;13.75;12.00;;;;;9.60;100.00;98741.03;6195775;28;96560;-58
2023/12/31 04:18:57;;;;;;;;;12.60;11.60;;;;;9.58;100.00;98748.47;6203569;28;96299;-58
2023/12/31 04:22:01;;;;;;;;;13.00;12.00;;;;;9.56;100.00;98742.50;6195837;28;96256;-58
2023/12/31 04:25:04;;;;;;;;;15.00;13.67;;;;;9.52;100.00;98733.22;6219195;28;96803;-58
2023/12/31 04:28:07;;;;;;;;;14.00;14.00;;;;;9.50;100.00;98736.13;6225318;28;96509;-58
2023/12/31 04:31:12;;;;;;;;;12.50;12.50;;;;;9.48;100.00;98745.47;6213444;28;96234;-58
2023/12/31 04:34:15;;;;;;;;;13.00;12.25;;;;;9.48;100.00;98740.09;6215500;28;96350;-58
2023/12/31 04:37:19;;;;;;;;;12.00;11.60;;;;;9.47;100.00;98741.13;6229272;28;96527;-58
2023/12/31 04:40:22;;;;;;;;;11.20;10.60;;;;;9.46;100.00;98740.31;6211321;28;96268;-58
2023/12/31 04:43:25;;;;;;;;;12.80;12.00;;;;;9.47;100.00;98741.13;6237318;28;96926;-58
2023/12/31 04:46:30;;;;;;;;;13.75;11.00;;;;;9.47;100.00;98741.97;6220114;28;97632;-58
2023/12/31 04:49:34;;;;;;;;;13.00;11.40;;;;;9.43;100.00;98740.72;6212956;28;96395;-58
2023/12/31 04:52:37;;;;;;;;;12.00;10.40;;;;;9.41;100.00;98740.13;6211664;28;96469;-58
2023/12/31 04:55:40;;;;;;;;;12.60;11.00;;;;;9.35;100.00;98735.63;6213103;28;96781;-59
2023/12/31 04:58:43;;;;;;;;;12.20;9.60;;;;;9.32;100.00;98738.75;6212048;28;96356;-58
2023/12/31 05:01:51;;;;;;;;;10.25;10.00;;;;;9.30;100.00;98737.31;6229937;27;98417;-58
2023/12/31 05:04:54;;;;;;;;;13.40;12.00;;;;;9.22;100.00;98729.50;6230779;28;96364;-59
2023/12/31 05:07:57;;;;;;;;;10.00;9.50;;;;;9.09;100.00;98728.53;6230832;28;96297;-59
2023/12/31 05:11:00;;;;;;;;;11.00;10.40;;;;;9.05;100.00;98731.88;6212924;28;96343;-59
2023/12/31 05:14:04;;;;;;;;;11.00;11.00;;;;;8.91;100.00;98732.97;6212478;28;96286;-59
2023/12/31 05:17:08;;;;;;;;;9.25;9.25;;;;;8.81;100.00;98730.75;6212079;28;96939;-59
2023/12/31 05:20:12;;;;;;;;;12.80;12.00;;;;;8.71;100.00;98727.69;6213070;28;96280;-59
2023/12/31 05:23:15;;;;;;;;;12.00;11.00;;;;;8.65;100.00;98728.53;6212432;28;96398;-59
2023/12/31 05:26:18;;;;;;;;;12.00;11.00;;;;;8.58;100.00;98714.31;6227436;28;96964;-58
2023/12/31 05:29:21;;;;;;;;;16.00;14.60;;;;;8.55;100.00;98717.44;6226645;28;96871;-58
2023/12/31 05:32:25;;;;;;;;;13.60;11.00;;;;;8.52;100.00;98716.00;6212364;28;96279;-59
2023/12/31 05:35:29;;;;;;;;;13.00;11.50;;;;;8.47;100.00;98713.13;6206024;28;96354;-59
2023/12/31 05:38:32;;;;;;;;;13.80;13.20;;;;;8.43;100.00;98711.91;6227090;28;96424;-59
2023/12/31 05:41:36;;;;;;;;;14.00;12.00;;;;;8.38;100.00;98700.97;6236794;28;96489;-59
2023/12/31 05:44:39;;;;;;;;;16.00;13.60;;;;;8.35;100.00;98692.50;6200248;28;98146;-59
2023/12/31 05:47:44;;;;;;;;;13.00;12.75;;;;;8.36;100.00;98689.59;6236153;28;96433;-59
2023/12/31 05:50:49;;;;;;;;;14.00;13.00;;;;;8.31;100.00;98693.97;6230105;28;96409;-58
2023/12/31 05:53:52;;;;;;;;;14.40;13.00;;;;;8.27;100.00;98704.28;6215438;28;96512;-58
2023/12/31 05:56:55;;;;;;;;;14.75;12.50;;;;;8.24;100.00;98692.09;6195717;28;98386;-59
2023/12/31 06:00:00;;;;;;;;;14.00;13.60;;;;;8.23;100.00;98695.81;6209833;28;96342;-59
2023/12/31 06:03:15;;;;;;;;;13.75;12.75;;;;;8.22;100.00;98699.53;6209816;28;96251;-59
2023/12/31 06:06:20;;;;;;;;;15.40;13.60;;;;;8.20;100.00;98693.56;6210569;28;96977;-59
2023/12/31 06:09:23;;;;;;;;;16.60;14.60;;;;;8.17;100.00;98693.97;6192493;28;97051;-58
2023/12/31 06:12:26;;;;;;;;;15.60;13.60;;;;;8.14;100.00;98686.34;6196872;28;96905;-58
2023/12/31 06:15:29;;;;;;;;;15.75;14.75;;;;;8.13;100.00;98686.56;6216014;28;96242;-58
2023/12/31 06:18:34;;;;;;;;;17.00;15.00;;;;;8.13;100.00;98681.19;6216423;28;96377;-58
2023/12/31 06:21:37;;;;;;;;;15.00;15.00;;;;;8.14;100.00;98680.16;6208623;28;98530;-58
2023/12/31 06:24:40;;;;;;;;;17.00;16.00;;;;;8.15;100.00;98681.81;6215941;28;97401;-58
2023/12/31 06:27:43;;;;;;;;;19.25;17.25;;;;;8.15;100.00;98671.06;6215807;28;96247;-58
2023/12/31 06:30:46;;;;;;;;;18.00;16.00;;;;;8.16;100.00;98673.50;6215880;28;96339;-58
2023/12/31 06:33:51;;;;;;;;;16.00;15.00;;;;;8.18;100.00;98665.25;6215682;28;96332;-58
2023/12/31 06:36:55;;;;;;;;;15.00;13.20;;;;;8.21;100.00;98671.03;6197898;28;96253;-58
2023/12/31 06:39:58;;;;;;;;;17.00;16.00;;;;;8.22;100.00;98666.47;6215245;28;96486;-58
2023/12/31 06:43:01;;;;;;;;;14.60;14.00;;;;;8.27;100.00;98666.66;6215405;28;96235;-58
2023/12/31 06:46:05;;;;;;;;;14.20;13.00;;;;;8.33;100.00;98662.34;6199077;28;96811;-58
2023/12/31 06:49:10;;;;;;;;;12.00;12.00;;;;;8.39;100.00;98651.59;6214803;28;96253;-58
2023/12/31 06:52:13;;;;;;;;;12.80;12.20;;;;;8.38;100.00;98651.78;6215481;28;96970;-58
2023/12/31 06:55:16;;;;;;;;;15.00;13.00;;;;;8.38;100.00;98658.00;6215222;28;96291;-58
2023/12/31 06:58:20;;;;;;;;;13.00;12.25;;;;;8.46;100.00;98652.38;6215327;28;96463;-58
2023/12/31 07:01:23;;;;;;;;;14.80;13.80;;;;;8.43;100.00;98641.22;6215437;28;96536;-58
2023/12/31 07:04:28;;;;;;;;;15.40;14.00;;;;;8.47;100.00;98645.97;6213595;28;96270;-58
2023/12/31 07:07:31;;;;;;;;;15.80;14.80;;;;;8.52;100.00;98645.31;6213649;28;96263;-58
2023/12/31 07:10:34;;;;;;;;;15.00;14.25;;;;;8.66;100.00;98650.41;6214099;28;96483;-58
2023/12/31 07:13:37;;;;;;;;;17.40;16.40;;;;;8.76;100.00;98633.81;6214732;28;96209;-58
2023/12/31 07:16:40;;;;;;;;;15.00;14.00;;;;;8.96;100.00;98641.75;6215326;28;96402;-58
2023/12/31 07:19:44;;;;;;;;;14.00;13.00;;;;;9.16;100.00;98641.59;6215508;28;96342;-58
2023/12/31 07:22:48;;;;;;;;;14.40;13.40;;;;;9.32;100.00;98624.94;6232350;28;96453;-55
2023/12/31 07:25:51;;;;;;;;;14.00;14.00;;;;;9.58;100.00;98630.06;6243378;28;96383;-56
2023/12/31 07:28:54;;;;;;;;;16.00;15.50;;;;;9.84;100.00;98628.97;6243486;28;96268;-56
2023/12/31 07:32:12;;;;;;;;;16.50;15.50;;;;;10.19;100.00;98630.06;6244560;27;96227;-55
2023/12/31 07:35:17;;;;;;;;;15.00;14.50;;;;;10.52;100.00;98624.25;6244063;28;96702;-55
2023/12/31 07:38:20;;;;;;;;;17.40;16.60;;;;;10.96;100.00;98624.88;6243705;28;96321;-56
2023/12/31 07:41:23;;;;;;;;;18.60;15.40;;;;;11.30;100.00;98618.75;6243631;28;96752;-56
2023/12/31 07:44:26;;;;;;;;;13.50;13.50;;;;;11.56;100.00;98615.59;6243978;28;96324;-57
2023/12/31 07:47:30;;;;;;;;;13.00;12.00;;;;;11.91;100.00;98610.22;6242200;28;96324;-56
2023/12/31 07:50:34;;;;;;;;;14.20;13.20;;;;;12.39;100.00;98611.75;6243950;27;96405;-56
2023/12/31 07:53:37;;;;;;;;;19.00;16.00;;;;;13.05;100.00;98604.88;6225945;28;96817;-56
2023/12/31 07:56:41;;;;;;;;;18.00;17.60;;;;;13.73;100.00;98604.66;6243490;28;96296;-56
2023/12/31 07:59:45;;;;;;;;;23.40;21.00;;;;;14.10;100.00;98599.47;6221039;28;96947;-56
2023/12/31 08:02:48;;;;;;;;;19.40;18.00;;;;;14.11;100.00;98593.00;6242608;28;96283;-56
2023/12/31 08:05:52;;;;;;;;;18.60;17.60;;;;;14.14;100.00;98593.28;6242064;27;97276;-56
2023/12/31 08:08:55;;;;;;;;;17.00;16.00;;;;;14.34;100.00;98595.44;6242225;28;96526;-56
2023/12/31 08:11:58;;;;;;;;;20.60;19.00;;;;;14.67;100.00;98591.78;6242304;28;96223;-56
2023/12/31 08:15:02;;;;;;;;;18.00;17.00;;;;;14.94;100.00;98587.19;6242246;27;96392;-56
2023/12/31 08:18:05;;;;;;;;;18.60;17.60;;;;;15.49;100.00;98588.72;6240548;28;96279;-56
2023/12/31 08:21:10;;;;;;;;;20.00;19.00;;;;;15.97;100.00;98580.38;6240348;28;96394;-56
2023/12/31 08:24:19;;;;;;;;;19.00;19.00;;;;;16.34;100.00;98580.25;6239413;28;96396;-56
2023/12/31 08:27:22;;;;;;;;;22.00;19.00;;;;;16.48;100.00;98575.94;6239755;28;97305;-56
2023/12/31 08:30:25;;;;;;;;;17.00;16.00;;;;;16.55;100.00;98573.00;6239315;28;96859;-56
2023/12/31 08:33:28;;;;;;;;;16.00;16.00;;;;;16.62;100.00;98576.28;6240226;28;96579;-56
2023/12/31 08:36:32;;;;;;;;;18.00;17.40;;;;;16.77;100.00;98568.16;6238190;28;96341;-55
2023/12/31 08:39:40;;;;;;;;;18.40;17.40;;;;;17.03;100.00;98571.75;6239074;28;96371;-56
2023/12/31 08:42:43;;;;;;;;;22.00;19.00;;;;;17.27;100.00;98575.56;6241986;28;96672;-56
2023/12/31 08:45:47;;;;;;;;;18.00;17.40;;;;;17.59;100.00;98571.78;6241014;28;96228;-56
2023/12/31 08:48:50;;;;;;;;;19.00;18.00;;;;;17.86;100.00;98572.25;6225147;28;96883;-56
2023/12/31 08:51:55;;;;;;;;;20.00;18.00;;;;;18.04;100.00;98562.66;6242398;28;96358;-56
2023/12/31 08:54:58;;;;;;;;;16.75;15.00;;;;;18.21;100.00;98568.63;6241888;28;96394;-56
2023/12/31 08:58:01;;;;;;;;;18.00;17.75;;;;;18.23;100.00;98562.88;6240257;28;96885;-56
2023/12/31 09:01:04;;;;;;;;;18.60;17.60;;;;;18.37;100.00;98562.00;6241097;28;96579;-56
2023/12/31 09:04:09;;;;;;;;;16.50;15.75;;;;;18.82;100.00;98554.66;6240461;28;96650;-56
2023/12/31 09:07:13;;;;;;;;;17.50;16.50;;;;;19.54;100.00;98545.66;6219648;28;96703;-57
2023/12/31 09:10:17;;;;;;;;;17.00;14.00;;;;;20.52;100.00;98544.28;6241306;28;96530;-56
2023/12/31 09:13:22;;;;;;;;;14.00;13.60;;;;;21.98;100.00;98539.19;6242136;27;97456;-56
2023/12/31 09:16:25;;;;;;;;;14.00;13.60;;;;;23.39;100.00;98537.13;6242311;28;96281;-56
2023/12/31 09:19:30;;;;;;;;;13.00;12.40;;;;;24.56;100.00;98534.78;6240913;28;97129;-56
2023/12/31 09:22:35;;;;;;;;;13.00;12.00;;;;;25.30;100.00;98535.47;6238426;28;97436;-58
2023/12/31 09:25:38;;;;;;;;;13.00;12.75;;;;;25.68;100.00;98532.00;6238501;28;96966;-57
2023/12/31 09:28:42;;;;;;;;;13.00;12.00;;;;;26.38;99.34;98527.84;6240562;28;96389;-56
2023/12/31 09:31:46;;;;;;;;;12.00;11.00;;;;;27.32;95.21;98518.06;6241325;28;97043;-57
2023/12/31 09:34:49;;;;;;;;;13.60;13.40;;;;;28.62;88.69;98515.34;6219190;28;96339;-57
2023/12/31 09:37:54;;;;;;;;;12.50;12.50;;;;;30.06;85.78;98513.16;6241217;27;96337;-57
2023/12/31 09:40:58;;;;;;;;;17.50;16.00;;;;;31.45;80.55;98499.56;6240000;28;96897;-57
2023/12/31 09:44:03;;;;;;;;;16.00;14.60;;;;;32.59;74.76;98492.03;6239167;28;96490;-57
2023/12/31 09:47:08;;;;;;;;;15.80;14.20;;;;;33.36;73.09;98471.91;6213746;28;98381;-58
2023/12/31 09:50:14;;;;;;;;;18.00;16.00;;;;;34.00;71.48;98481.75;6224849;28;96888;-57
2023/12/31 09:53:20;;;;;;;;;21.00;19.40;;;;;34.08;68.31;98475.00;6240693;28;96870;-58
2023/12/31 09:56:24;;;;;;;;;18.75;17.75;;;;;33.63;67.56;98465.00;6232878;28;96351;-57
2023/12/31 09:59:27;;;;;;;;;18.40;16.40;;;;;33.45;67.50;98462.03;6242463;28;96339;-57
2023/12/31 10:02:30;;;;;;;;;19.00;18.00;;;;;33.24;66.75;98460.97;6226092;28;96332;-57
2023/12/31 10:05:36;;;;;;;;;19.50;18.50;;;;;32.75;67.12;98456.38;6243069;28;96904;-57
2023/12/31 10:08:43;;;;;;;;;22.00;21.50;;;;;31.37;68.52;98451.28;6241056;28;96346;-57
2023/12/31 10:11:46;;;;;;;;;21.00;21.00;;;;;30.31;74.46;98447.00;6241971;28;96315;-57
2023/12/31 10:14:51;;;;;;;;;25.00;24.60;;;;;29.17;77.15;98431.38;6240969;28;96733;-57
2023/12/31 10:17:55;;;;;;;;;23.80;22.00;;;;;28.23;79.46;98434.53;6222701;28;96742;-57
2023/12/31 10:20:58;;;;;;;;;24.20;23.20;;;;;28.05;81.46;98422.06;6221480;28;96700;-57
2023/12/31 10:24:03;;;;;;;;;25.00;22.00;;;;;28.49;81.29;98416.72;6224927;28;96268;-57
2023/12/31 10:27:08;;;;;;;;;24.00;23.00;;;;;29.24;78.70;98403.78;6213113;28;96803;-57
2023/12/31 10:30:12;;;;;;;;;21.20;20.00;;;;;30.22;77.40;98415.00;6242990;28;96324;-58
2023/12/31 10:33:17;;;;;;;;;23.60;21.60;;;;;30.74;75.07;98420.94;6222348;28;98455;-57
2023/12/31 10:36:23;;;;;;;;;22.00;21.00;;;;;31.04;73.15;98414.81;6242063;28;96253;-57
2023/12/31 10:39:28;;;;;;;;;26.60;23.60;;;;;30.81;72.55;98414.75;6239350;28;96289;-57
2023/12/31 10:42:31;;;;;;;;;25.00;22.60;;;;;30.86;73.59;98401.34;6239028;28;96909;-58
2023/12/31 10:45:35;;;;;;;;;22.00;20.60;;;;;30.47;73.32;98403.31;6239275;28;96299;-57
2023/12/31 10:48:44;;;;;;;;;23.00;21.80;;;;;29.84;76.12;98390.66;6224332;28;98650;-57
2023/12/31 10:51:52;;;;;;;;;21.00;20.00;;;;;28.69;80.38;98388.75;6232494;28;96363;-58
2023/12/31 10:54:58;;;;;;;;;24.00;21.40;;;;;27.37;84.22;98384.94;6192699;28;97469;-59
2023/12/31 10:58:02;;;;;;;;;25.80;22.20;;;;;26.23;89.67;98380.03;6189056;28;96864;-58
2023/12/31 11:01:07;;;;;;;;;22.40;21.00;;;;;25.24;96.31;98379.50;6211462;28;97748;-59
2023/12/31 11:04:11;;;;;;;;;25.60;24.00;;;;;24.37;98.90;98344.13;6197185;28;96959;-58
2023/12/31 11:07:15;;;;;;;;;25.20;24.00;;;;;23.89;100.00;98360.75;6206755;28;96380;-58
2023/12/31 11:10:21;;;;;;;;;21.00;20.00;;;;;23.42;100.00;98343.91;6213673;28;96293;-58
2023/12/31 11:13:27;;;;;;;;;25.50;23.50;;;;;23.53;100.00;98358.25;6205840;28;96640;-58
2023/12/31 11:16:48;;;;;;;;;23.00;22.00;;;;;23.68;100.00;98341.28;6208752;28;96401;-58
2023/12/31 11:20:24;;;;;;;;;25.80;24.40;;;;;23.05;100.00;98353.50;6207705;28;96385;-58
2023/12/31 11:23:39;;;;;;;;;25.00;23.00;;;;;22.69;100.00;98347.25;6183554;28;96573;-58
2023/12/31 11:26:43;;;;;;;;;23.00;22.00;;;;;22.65;100.00;98333.34;6203720;28;96508;-58
2023/12/31 11:29:49;;;;;;;;;22.20;20.20;;;;;23.10;100.00;98336.03;6208911;28;96362;-58
2023/12/31 11:32:53;;;;;;;;;23.25;22.00;;;;;23.93;100.00;98329.50;6189775;28;96881;-58
2023/12/31 11:36:00;;;;;;;;;25.75;22.00;;;;;25.31;100.00;98324.63;6198790;28;96308;-58
2023/12/31 11:39:06;;;;;;;;;18.75;17.75;;;;;26.35;97.93;98326.75;6214361;28;96368;-58
2023/12/31 11:42:13;;;;;;;;;25.60;23.80;;;;;27.17;92.42;98325.78;6214657;28;96271;-58
2023/12/31 11:45:44;;;;;;;;;22.00;20.50;;;;;27.34;89.68;98306.19;6213540;28;96504;-58
2023/12/31 11:48:48;;;;;;;;;22.00;20.00;;;;;26.99;90.13;98299.44;6191404;28;96368;-58
2023/12/31 11:51:52;;;;;;;;;20.80;19.20;;;;;26.64;91.53;98291.50;6203523;28;97360;-59
2023/12/31 11:54:59;;;;;;;;;22.40;21.00;;;;;26.08;94.33;98293.00;6193690;28;96701;-58
2023/12/31 11:58:04;;;;;;;;;19.00;18.60;;;;;25.06;98.81;98280.59;6213870;28;96298;-58
2023/12/31 12:01:07;;;;;;;;;21.00;19.00;;;;;24.37;100.00;98295.34;6211875;28;96562;-56
2023/12/31 12:04:11;;;;;;;;;24.00;21.00;;;;;23.37;100.00;98280.81;6243074;28;96509;-56
2023/12/31 12:07:14;;;;;;;;;20.00;19.00;;;;;22.55;100.00;98278.66;6242082;28;96973;-56
2023/12/31 12:10:17;;;;;;;;;19.60;19.00;;;;;21.89;100.00;98282.19;6241034;28;96252;-56
2023/12/31 12:13:22;;;;;;;;;21.60;21.40;;;;;21.42;100.00;98278.00;6243125;27;96378;-56
2023/12/31 12:16:27;;;;;;;;;21.50;20.00;;;;;22.09;100.00;98272.69;6242198;28;96139;-56
2023/12/31 12:19:34;;;;;;;;;24.00;21.80;;;;;22.97;100.00;98244.28;6217180;28;96756;-56
2023/12/31 12:22:38;;;;;;;;;22.25;21.25;;;;;23.62;100.00;98255.31;6218491;28;96356;-56
2023/12/31 12:25:42;;;;;;;;;26.00;24.00;;;;;23.68;100.00;98250.47;6216295;28;96345;-56
2023/12/31 12:28:49;;;;;;;;;25.00;24.00;;;;;23.32;100.00;98254.25;6232260;27;96906;-56
2023/12/31 12:31:52;;;;;;;;;24.00;23.00;;;;;23.55;100.00;98232.16;6242385;28;96384;-56
2023/12/31 12:34:59;;;;;;;;;24.00;24.00;;;;;24.23;100.00;98234.13;6242656;28;96277;-56
2023/12/31 12:38:02;;;;;;;;;19.60;19.60;;;;;25.15;100.00;98218.75;6223200;28;96778;-56
2023/12/31 12:41:05;;;;;;;;;21.60;21.40;;;;;25.44;100.00;98229.75;6240042;27;96246;-56
2023/12/31 12:44:10;;;;;;;;;26.00;24.50;;;;;25.00;100.00;98220.13;6235978;28;96387;-56
2023/12/31 12:47:17;;;;;;;;;22.00;21.75;;;;;24.12;100.00;98217.09;6242612;28;96380;-56
2023/12/31 12:50:20;;;;;;;;;22.00;20.60;;;;;23.22;100.00;98223.50;6239375;27;96468;-56
2023/12/31 12:53:23;;;;;;;;;19.20;18.00;;;;;22.13;100.00;98216.03;6239470;28;96664;-56
2023/12/31 12:56:26;;;;;;;;;22.00;21.00;;;;;21.43;100.00;98203.66;6242185;27;96264;-56
2023/12/31 12:59:31;;;;;;;;;24.40;23.00;;;;;21.16;100.00;98207.25;6242247;28;96353;-55
2023/12/31 13:02:34;;;;;;;;;20.20;19.60;;;;;20.80;100.00;98198.16;6240443;28;96833;-56
2023/12/31 13:05:37;;;;;;;;;22.80;19.60;;;;;20.53;100.00;98204.41;6240703;28;96387;-56
2023/12/31 13:08:40;;;;;;;;;22.60;20.00;;;;;20.21;100.00;98209.91;6239916;28;96509;-56
2023/12/31 13:11:43;;;;;;;;;21.50;20.00;;;;;19.86;100.00;98214.88;6239408;28;96255;-55
2023/12/31 13:14:48;;;;;;;;;23.00;21.25;;;;;19.49;100.00;98208.63;6237115;28;96357;-55
2023/12/31 13:17:51;;;;;;;;;22.00;21.00;;;;;19.41;100.00;98197.19;6232867;28;96947;-55
2023/12/31 13:20:55;;;;;;;;;21.40;20.80;;;;;19.25;100.00;98165.75;6235624;28;96338;-56
2023/12/31 13:23:58;;;;;;;;;21.40;21.40;;;;;19.41;100.00;98193.66;6257044;28;96746;-55
2023/12/31 13:27:02;;;;;;;;;19.00;18.00;;;;;19.14;100.00;98188.03;6252445;28;96379;-55
2023/12/31 13:30:07;;;;;;;;;19.60;18.00;;;;;18.96;100.00;98168.56;6236441;28;96245;-55
2023/12/31 13:33:12;;;;;;;;;21.00;18.20;;;;;18.82;100.00;98175.03;6238010;28;96153;-55
2023/12/31 13:36:15;;;;;;;;;21.40;18.40;;;;;18.52;100.00;98178.94;6236955;28;96368;-55
2023/12/31 13:39:18;;;;;;;;;17.60;16.00;;;;;18.34;100.00;98168.75;6235880;28;96525;-56
2023/12/31 13:42:21;;;;;;;;;19.25;18.00;;;;;18.26;100.00;98163.94;6235464;28;97049;-55
2023/12/31 13:45:25;;;;;;;;;16.60;15.20;;;;;18.00;100.00;98152.47;6237152;28;96273;-55
2023/12/31 13:48:28;;;;;;;;;18.00;16.00;;;;;17.72;100.00;98156.81;6234893;28;96269;-55
2023/12/31 13:51:32;;;;;;;;;17.60;16.20;;;;;17.50;100.00;98149.03;6228228;28;96531;-56
2023/12/31 13:54:35;;;;;;;;;15.80;15.00;;;;;17.43;100.00;98145.03;6233114;28;96987;-55
2023/12/31 13:57:38;;;;;;;;;16.40;16.00;;;;;17.17;100.00;98139.75;6234589;28;96502;-56
2023/12/31 14:00:51;;;;;;;;;18.40;17.40;;;;;16.83;100.00;98149.75;6237148;28;97702;-55